createdAt,value
2018-07-11T00:00:05.149Z,13.96
2018-07-11T00:01:05.200Z,14.03
2018-07-11T00:02:58.192Z,13.93
2018-07-11T00:03:58.252Z,13.93
2018-07-11T00:05:51.247Z,13.86
2018-07-11T00:06:51.300Z,13.90
2018-07-11T00:08:44.292Z,13.87
2018-07-11T00:09:44.351Z,13.86
2018-07-11T00:11:37.354Z,13.78
2018-07-11T00:12:37.409Z,13.92
2018-07-11T00:14:30.416Z,13.83
2018-07-11T00:15:30.472Z,13.85
2018-07-11T00:17:23.965Z,13.87
2018-07-11T00:18:24.026Z,13.81
2018-07-11T00:20:17.022Z,13.90
2018-07-11T00:21:17.075Z,13.81
2018-07-11T00:23:10.067Z,13.86
2018-07-11T00:24:10.126Z,13.78
2018-07-11T00:26:03.122Z,13.81
2018-07-11T00:27:03.177Z,13.75
2018-07-11T00:28:56.164Z,13.74
2018-07-11T00:29:56.224Z,13.74
2018-07-11T00:31:49.220Z,13.79
2018-07-11T00:32:49.273Z,13.85
2018-07-11T00:34:42.259Z,13.87
2018-07-11T00:35:42.324Z,13.78
2018-07-11T00:37:35.313Z,13.79
2018-07-11T00:38:35.371Z,13.85
2018-07-11T00:40:28.367Z,13.86
2018-07-11T00:41:28.420Z,13.86
2018-07-11T00:43:21.408Z,13.87
2018-07-11T00:44:21.468Z,13.79
2018-07-11T00:46:14.470Z,13.77
2018-07-11T00:47:14.530Z,13.79
2018-07-11T00:49:07.516Z,13.85
2018-07-11T00:50:07.580Z,13.86
2018-07-11T00:52:00.573Z,13.77
2018-07-11T00:53:00.631Z,13.74
2018-07-11T00:54:53.619Z,13.86
2018-07-11T00:55:53.681Z,13.78
2018-07-11T00:57:46.678Z,13.79
2018-07-11T00:58:46.735Z,13.85
2018-07-11T01:00:39.723Z,13.77
2018-07-11T01:01:39.789Z,13.85
2018-07-11T01:03:32.783Z,13.90
2018-07-11T01:04:32.836Z,13.78
2018-07-11T01:06:25.832Z,13.77
2018-07-11T01:08:38.835Z,13.89
2018-07-11T01:09:38.896Z,13.90
2018-07-11T01:11:31.893Z,13.90
2018-07-11T01:12:31.942Z,13.92
2018-07-11T01:14:24.932Z,13.90
2018-07-11T01:15:24.998Z,13.92
2018-07-11T01:17:18.590Z,13.87
2018-07-11T01:18:18.645Z,13.83
2018-07-11T01:20:11.631Z,13.95
2018-07-11T01:21:11.694Z,13.87
2018-07-11T01:23:04.690Z,13.97
2018-07-11T01:24:04.745Z,13.93
2018-07-11T01:25:57.740Z,13.93
2018-07-11T01:26:57.801Z,13.99
2018-07-11T01:28:50.798Z,13.99
2018-07-11T01:29:50.860Z,14.04
2018-07-11T01:31:43.850Z,14.05
2018-07-11T01:32:43.902Z,13.95
2018-07-11T01:34:36.902Z,14.00
2018-07-11T01:35:36.965Z,14.00
2018-07-11T01:37:29.962Z,14.05
2018-07-11T01:38:30.016Z,13.93
2018-07-11T01:40:23.005Z,14.07
2018-07-11T01:41:23.068Z,14.03
2018-07-11T01:43:16.064Z,13.95
2018-07-11T01:44:16.116Z,13.93
2018-07-11T01:46:09.104Z,14.10
2018-07-11T01:47:09.165Z,14.10
2018-07-11T01:49:02.161Z,14.03
2018-07-11T01:50:02.217Z,13.99
2018-07-11T01:51:55.213Z,13.92
2018-07-11T01:52:55.271Z,13.90
2018-07-11T01:54:48.268Z,13.93
2018-07-11T01:55:48.321Z,13.92
2018-07-11T01:57:41.316Z,13.90
2018-07-11T01:58:41.374Z,13.89
2018-07-11T02:00:34.358Z,13.75
2018-07-11T02:01:34.419Z,13.68
2018-07-11T02:03:27.416Z,13.74
2018-07-11T02:04:27.469Z,13.65
2018-07-11T02:06:20.458Z,13.63
2018-07-11T02:07:20.520Z,13.53
2018-07-11T02:09:13.534Z,13.56
2018-07-11T02:10:13.860Z,13.41
2018-07-11T02:12:06.575Z,13.50
2018-07-11T02:13:06.639Z,13.39
2018-07-11T02:14:59.634Z,13.28
2018-07-11T02:15:59.686Z,13.25
2018-07-11T02:17:53.194Z,13.28
2018-07-11T02:18:53.242Z,13.22
2018-07-11T02:20:46.244Z,13.19
2018-07-11T02:21:46.305Z,13.22
2018-07-11T02:23:39.301Z,13.20
2018-07-11T02:24:39.356Z,13.19
2018-07-11T02:26:32.345Z,13.05
2018-07-11T02:27:32.408Z,13.25
2018-07-11T02:29:25.404Z,13.15
2018-07-11T02:30:25.459Z,13.12
2018-07-11T02:32:18.455Z,13.03
2018-07-11T02:33:18.511Z,13.05
2018-07-11T02:35:11.507Z,13.08
2018-07-11T02:36:11.560Z,13.01
2018-07-11T02:38:04.549Z,12.94
2018-07-11T02:39:04.611Z,12.98
2018-07-11T02:40:57.607Z,12.97
2018-07-11T02:41:57.660Z,12.97
2018-07-11T02:43:50.655Z,12.91
2018-07-11T02:44:50.712Z,12.95
2018-07-11T02:46:43.698Z,12.93
2018-07-11T02:47:43.760Z,12.94
2018-07-11T02:49:36.761Z,12.82
2018-07-11T02:50:36.819Z,12.93
2018-07-11T02:52:29.811Z,12.87
2018-07-11T02:53:29.864Z,12.87
2018-07-11T02:55:22.864Z,12.85
2018-07-11T02:56:22.913Z,12.85
2018-07-11T02:58:15.900Z,12.85
2018-07-11T02:59:15.960Z,12.86
2018-07-11T03:01:08.956Z,12.85
2018-07-11T03:02:09.013Z,12.83
2018-07-11T03:04:02.024Z,12.82
2018-07-11T03:05:02.061Z,12.79
2018-07-11T03:06:55.058Z,12.68
2018-07-11T03:07:55.118Z,12.65
2018-07-11T03:09:48.116Z,12.73
2018-07-11T03:10:48.174Z,12.75
2018-07-11T03:12:41.167Z,12.72
2018-07-11T03:13:41.232Z,12.65
2018-07-11T03:15:34.226Z,12.76
2018-07-11T03:16:34.286Z,12.65
2018-07-11T03:18:27.270Z,12.76
2018-07-11T03:19:27.331Z,12.78
2018-07-11T03:21:20.331Z,12.78
2018-07-11T03:22:20.387Z,12.82
2018-07-11T03:24:13.373Z,12.90
2018-07-11T03:25:13.435Z,12.82
2018-07-11T03:27:06.430Z,12.82
2018-07-11T03:28:06.482Z,12.80
2018-07-11T03:29:59.471Z,12.76
2018-07-11T03:30:59.532Z,12.90
2018-07-11T03:32:52.528Z,12.83
2018-07-11T03:33:52.582Z,12.78
2018-07-11T03:35:45.578Z,12.78
2018-07-11T03:36:45.634Z,12.73
2018-07-11T03:38:38.622Z,12.72
2018-07-11T03:39:38.679Z,12.72
2018-07-11T03:41:31.669Z,12.67
2018-07-11T03:42:31.728Z,12.65
2018-07-11T03:44:24.717Z,12.64
2018-07-11T03:45:24.777Z,12.67
2018-07-11T03:47:17.774Z,12.67
2018-07-11T03:48:17.825Z,12.65
2018-07-11T03:50:10.812Z,12.62
2018-07-11T03:51:10.873Z,12.73
2018-07-11T03:53:03.871Z,12.73
2018-07-11T03:54:03.928Z,12.64
2018-07-11T03:55:56.913Z,12.67
2018-07-11T03:56:56.976Z,12.68
2018-07-11T03:58:49.970Z,12.73
2018-07-11T03:59:50.025Z,12.72
2018-07-11T04:01:43.018Z,12.62
2018-07-11T04:02:43.072Z,12.61
2018-07-11T04:04:36.062Z,12.53
2018-07-11T04:05:36.124Z,12.50
2018-07-11T04:07:29.120Z,12.49
2018-07-11T04:08:29.175Z,12.53
2018-07-11T04:10:22.164Z,12.47
2018-07-11T04:11:22.225Z,12.55
2018-07-11T04:13:15.221Z,12.58
2018-07-11T04:14:15.277Z,12.53
2018-07-11T04:16:08.264Z,12.64
2018-07-11T04:17:08.321Z,12.57
2018-07-11T04:19:01.352Z,12.50
2018-07-11T04:20:01.368Z,12.62
2018-07-11T04:21:54.357Z,12.53
2018-07-11T04:22:54.420Z,12.57
2018-07-11T04:24:47.412Z,12.49
2018-07-11T04:25:47.465Z,12.58
2018-07-11T04:27:40.459Z,12.64
2018-07-11T04:28:40.517Z,12.67
2018-07-11T04:30:33.515Z,12.64
2018-07-11T04:31:33.571Z,12.67
2018-07-11T04:33:26.622Z,12.64
2018-07-11T04:34:26.635Z,12.72
2018-07-11T04:36:19.614Z,12.65
2018-07-11T04:37:19.675Z,12.65
2018-07-11T04:39:12.670Z,12.61
2018-07-11T04:40:12.724Z,12.67
2018-07-11T04:42:06.225Z,12.64
2018-07-11T04:43:06.280Z,12.68
2018-07-11T04:44:59.279Z,12.70
2018-07-11T04:45:59.337Z,12.70
2018-07-11T04:47:52.358Z,12.83
2018-07-11T04:48:52.401Z,12.82
2018-07-11T04:50:45.430Z,12.91
2018-07-11T04:51:45.452Z,12.82
2018-07-11T04:53:38.440Z,12.97
2018-07-11T04:54:38.500Z,13.03
2018-07-11T04:56:31.482Z,12.97
2018-07-11T04:57:31.575Z,13.05
2018-07-11T04:59:24.576Z,13.12
2018-07-11T05:00:24.620Z,13.05
2018-07-11T05:02:17.613Z,13.22
2018-07-11T05:03:17.650Z,13.28
2018-07-11T05:05:10.658Z,13.33
2018-07-11T05:06:10.772Z,13.31
2018-07-11T05:08:03.694Z,13.41
2018-07-11T05:09:03.731Z,13.46
2018-07-11T05:10:56.815Z,13.54
2018-07-11T05:11:56.805Z,13.60
2018-07-11T05:13:49.786Z,13.67
2018-07-11T05:14:49.850Z,13.72
2018-07-11T05:16:42.829Z,13.75
2018-07-11T05:17:42.885Z,13.72
2018-07-11T05:19:35.926Z,13.90
2018-07-11T05:20:35.931Z,13.93
2018-07-11T05:22:29.446Z,13.95
2018-07-11T05:23:29.487Z,14.00
2018-07-11T05:25:22.547Z,14.07
2018-07-11T05:26:22.535Z,14.20
2018-07-11T05:28:15.515Z,14.26
2018-07-11T05:29:15.581Z,14.36
2018-07-11T05:31:08.579Z,14.53
2018-07-11T05:32:08.631Z,14.62
2018-07-11T05:34:01.620Z,14.73
2018-07-11T05:35:01.684Z,14.69
2018-07-11T05:36:54.676Z,14.84
2018-07-11T05:37:54.732Z,14.86
2018-07-11T05:39:47.721Z,15.04
2018-07-11T05:40:47.783Z,15.10
2018-07-11T05:42:40.779Z,15.18
2018-07-11T05:43:40.835Z,15.33
2018-07-11T05:45:33.822Z,15.35
2018-07-11T05:46:33.884Z,15.39
2018-07-11T05:48:26.881Z,15.52
2018-07-11T05:49:26.935Z,15.57
2018-07-11T05:51:19.938Z,15.73
2018-07-11T05:52:19.991Z,15.88
2018-07-11T05:54:12.985Z,16.00
2018-07-11T05:55:13.049Z,16.21
2018-07-11T05:57:06.052Z,16.26
2018-07-11T05:58:06.109Z,16.36
2018-07-11T05:59:59.159Z,16.61
2018-07-11T06:00:59.166Z,16.64
2018-07-11T06:02:52.162Z,16.64
2018-07-11T06:03:52.216Z,16.74
2018-07-11T06:05:45.210Z,16.93
2018-07-11T06:06:45.269Z,16.93
2018-07-11T06:08:38.265Z,17.22
2018-07-11T06:09:38.319Z,17.19
2018-07-11T06:11:31.315Z,17.39
2018-07-11T06:12:31.371Z,17.57
2018-07-11T06:14:24.369Z,18.11
2018-07-11T06:15:24.427Z,18.73
2018-07-11T06:17:17.428Z,18.73
2018-07-11T06:18:17.479Z,18.66
2018-07-11T06:20:10.478Z,18.23
2018-07-11T06:21:10.535Z,18.00
2018-07-11T06:23:03.536Z,17.78
2018-07-11T06:24:03.593Z,17.56
2018-07-11T06:25:56.598Z,17.74
2018-07-11T06:26:56.650Z,18.10
2018-07-11T06:28:49.648Z,18.15
2018-07-11T06:29:49.707Z,18.33
2018-07-11T06:31:42.698Z,18.34
2018-07-11T06:32:42.764Z,18.34
2018-07-11T06:34:35.766Z,18.03
2018-07-11T06:35:35.822Z,18.08
2018-07-11T06:37:28.816Z,17.79
2018-07-11T06:38:28.878Z,17.67
2018-07-11T06:40:21.882Z,17.65
2018-07-11T06:41:21.936Z,17.63
2018-07-11T06:43:14.936Z,17.59
2018-07-11T06:44:14.990Z,17.54
2018-07-11T06:46:07.988Z,17.60
2018-07-11T06:47:08.051Z,17.72
2018-07-11T06:49:01.054Z,17.95
2018-07-11T06:50:01.107Z,18.00
2018-07-11T06:51:54.103Z,18.29
2018-07-11T06:52:54.166Z,18.37
2018-07-11T06:54:47.163Z,18.52
2018-07-11T06:55:47.219Z,18.62
2018-07-11T06:57:40.232Z,18.80
2018-07-11T06:58:40.276Z,19.21
2018-07-11T07:00:33.277Z,19.76
2018-07-11T07:01:33.335Z,20.03
2018-07-11T07:03:26.370Z,21.42
2018-07-11T07:04:26.398Z,22.45
2018-07-11T07:06:19.390Z,24.40
2018-07-11T07:07:19.456Z,25.68
2018-07-11T07:09:12.455Z,28.07
2018-07-11T07:10:12.515Z,27.51
2018-07-11T07:12:05.517Z,27.49
2018-07-11T07:13:05.605Z,26.89
2018-07-11T07:14:58.590Z,26.89
2018-07-11T07:15:58.650Z,27.68
2018-07-11T07:17:51.659Z,29.20
2018-07-11T07:18:51.724Z,28.44
2018-07-11T07:20:44.745Z,26.96
2018-07-11T07:21:44.793Z,25.98
2018-07-11T07:23:37.799Z,24.77
2018-07-11T07:24:37.869Z,24.11
2018-07-11T07:26:30.880Z,23.17
2018-07-11T07:27:30.943Z,23.03
2018-07-11T07:29:23.948Z,22.55
2018-07-11T07:30:24.026Z,22.38
2018-07-11T07:32:17.028Z,22.13
2018-07-11T07:33:17.090Z,22.20
2018-07-11T07:35:10.104Z,22.43
2018-07-11T07:36:10.191Z,22.44
2018-07-11T07:38:03.173Z,22.44
2018-07-11T07:39:03.230Z,22.68
2018-07-11T07:40:56.240Z,23.40
2018-07-11T07:41:56.301Z,23.25
2018-07-11T07:43:49.306Z,23.61
2018-07-11T07:44:49.402Z,23.98
2018-07-11T07:46:42.381Z,23.65
2018-07-11T07:47:42.440Z,23.28
2018-07-11T07:49:35.455Z,22.83
2018-07-11T07:50:35.517Z,22.54
2018-07-11T07:52:28.523Z,22.15
2018-07-11T07:53:28.583Z,21.88
2018-07-11T07:55:21.588Z,21.50
2018-07-11T07:56:21.651Z,21.48
2018-07-11T07:58:14.658Z,21.25
2018-07-11T07:59:14.728Z,21.11
2018-07-11T08:01:07.735Z,20.84
2018-07-11T08:02:07.795Z,20.97
2018-07-11T08:04:00.790Z,20.84
2018-07-11T08:05:00.857Z,20.97
2018-07-11T08:06:53.921Z,21.25
2018-07-11T08:07:53.924Z,21.50
2018-07-11T08:09:46.927Z,21.98
2018-07-11T08:10:46.991Z,22.08
2018-07-11T08:12:40.051Z,22.30
2018-07-11T08:13:40.055Z,22.39
2018-07-11T08:15:33.056Z,22.51
2018-07-11T08:16:33.125Z,22.66
2018-07-11T08:18:26.128Z,22.94
2018-07-11T08:19:26.189Z,22.99
2018-07-11T08:21:19.200Z,22.99
2018-07-11T08:22:19.253Z,22.76
2018-07-11T08:24:12.258Z,22.45
2018-07-11T08:25:12.321Z,22.25
2018-07-11T08:27:05.350Z,22.22
2018-07-11T08:28:05.391Z,22.33
2018-07-11T08:29:58.394Z,22.28
2018-07-11T08:30:58.459Z,22.53
2018-07-11T08:32:51.464Z,22.80
2018-07-11T08:33:51.589Z,22.68
2018-07-11T08:35:44.529Z,22.72
2018-07-11T08:36:44.590Z,22.70
2018-07-11T08:38:37.598Z,23.41
2018-07-11T08:39:37.657Z,24.35
2018-07-11T08:41:30.674Z,25.46
2018-07-11T08:42:30.736Z,24.80
2018-07-11T08:44:24.241Z,24.14
2018-07-11T08:45:24.298Z,23.84
2018-07-11T08:47:17.310Z,23.34
2018-07-11T08:48:17.384Z,23.17
2018-07-11T08:50:10.379Z,22.75
2018-07-11T08:51:10.448Z,22.73
2018-07-11T08:53:03.457Z,22.70
2018-07-11T08:54:03.517Z,22.70
2018-07-11T08:55:56.522Z,23.23
2018-07-11T08:56:56.592Z,23.55
2018-07-11T08:58:49.601Z,24.02
2018-07-11T08:59:49.663Z,23.81
2018-07-11T09:01:42.657Z,23.46
2018-07-11T09:02:42.751Z,23.36
2018-07-11T09:04:35.738Z,23.18
2018-07-11T09:05:35.801Z,23.03
2018-07-11T09:07:28.803Z,22.78
2018-07-11T09:08:28.867Z,22.76
2018-07-11T09:10:21.874Z,22.54
2018-07-11T09:11:21.939Z,22.43
2018-07-11T09:13:14.941Z,22.17
2018-07-11T09:14:15.008Z,21.88
2018-07-11T09:16:08.013Z,21.82
2018-07-11T09:17:08.076Z,21.67
2018-07-11T09:19:01.087Z,21.64
2018-07-11T09:20:01.148Z,21.57
2018-07-11T09:21:54.152Z,21.45
2018-07-11T09:22:54.212Z,21.33
2018-07-11T09:24:47.221Z,21.25
2018-07-11T09:25:47.279Z,21.12
2018-07-11T09:27:40.277Z,21.14
2018-07-11T09:28:40.342Z,21.17
2018-07-11T09:30:33.400Z,21.12
2018-07-11T09:31:33.405Z,21.12
2018-07-11T09:33:26.408Z,21.11
2018-07-11T09:34:26.473Z,21.18
2018-07-11T09:36:19.472Z,21.45
2018-07-11T09:37:19.530Z,21.50
2018-07-11T09:39:12.526Z,21.75
2018-07-11T09:40:12.592Z,21.73
2018-07-11T09:42:05.593Z,21.93
2018-07-11T09:43:05.652Z,21.98
2018-07-11T09:44:59.175Z,22.06
2018-07-11T09:45:59.227Z,22.07
2018-07-11T09:47:52.225Z,22.07
2018-07-11T09:48:52.292Z,22.20
2018-07-11T09:50:45.298Z,22.43
2018-07-11T09:51:45.359Z,22.43
2018-07-11T09:53:38.360Z,22.66
2018-07-11T09:54:38.421Z,22.76
2018-07-11T09:56:31.424Z,22.75
2018-07-11T09:57:31.485Z,22.91
2018-07-11T09:59:24.486Z,22.87
2018-07-11T10:00:24.552Z,22.85
2018-07-11T10:02:17.557Z,22.98
2018-07-11T10:03:17.618Z,22.98
2018-07-11T10:05:10.653Z,23.13
2018-07-11T10:06:10.682Z,23.46
2018-07-11T10:08:03.680Z,23.98
2018-07-11T10:09:03.753Z,23.95
2018-07-11T10:10:56.756Z,24.16
2018-07-11T10:11:56.839Z,23.96
2018-07-11T10:13:49.819Z,23.78
2018-07-11T10:14:49.880Z,23.66
2018-07-11T10:16:42.889Z,23.69
2018-07-11T10:17:42.949Z,23.58
2018-07-11T10:19:35.946Z,23.24
2018-07-11T10:20:36.013Z,23.02
2018-07-11T10:22:29.023Z,22.94
2018-07-11T10:23:29.087Z,22.96
2018-07-11T10:25:22.085Z,23.10
2018-07-11T10:26:22.151Z,23.27
2018-07-11T10:28:15.164Z,23.32
2018-07-11T10:29:15.224Z,23.37
2018-07-11T10:31:08.237Z,23.37
2018-07-11T10:32:08.298Z,23.37
2018-07-11T10:34:01.302Z,23.37
2018-07-11T10:35:01.367Z,23.32
2018-07-11T10:36:54.373Z,23.18
2018-07-11T10:37:54.429Z,23.24
2018-07-11T10:39:47.436Z,23.31
2018-07-11T10:40:47.501Z,23.18
2018-07-11T10:42:40.511Z,23.00
2018-07-11T10:43:40.570Z,22.85
2018-07-11T10:45:33.580Z,22.78
2018-07-11T10:46:33.643Z,22.76
2018-07-11T10:48:26.649Z,22.66
2018-07-11T10:49:26.706Z,22.51
2018-07-11T10:51:19.708Z,22.57
2018-07-11T10:52:19.778Z,22.54
2018-07-11T10:54:12.794Z,22.72
2018-07-11T10:55:12.854Z,22.68
2018-07-11T10:57:05.862Z,22.45
2018-07-11T10:58:05.917Z,22.39
2018-07-11T10:59:58.915Z,22.45
2018-07-11T11:01:05.700Z,22.59
2018-07-11T11:02:51.984Z,22.84
2018-07-11T11:03:52.058Z,22.96
2018-07-11T11:05:45.048Z,23.03
2018-07-11T11:06:45.123Z,22.99
2018-07-11T11:08:38.119Z,23.21
2018-07-11T11:09:38.180Z,23.28
2018-07-11T11:11:31.196Z,23.37
2018-07-11T11:12:31.248Z,23.51
2018-07-11T11:14:24.254Z,23.36
2018-07-11T11:15:24.325Z,23.12
2018-07-11T11:17:17.333Z,22.87
2018-07-11T11:18:17.383Z,22.85
2018-07-11T11:20:10.382Z,22.99
2018-07-11T11:21:10.451Z,22.91
2018-07-11T11:23:03.456Z,22.76
2018-07-11T11:24:03.515Z,22.57
2018-07-11T11:25:56.534Z,22.10
2018-07-11T11:26:56.589Z,22.08
2018-07-11T11:28:49.592Z,21.69
2018-07-11T11:29:49.648Z,21.45
2018-07-11T11:31:42.646Z,20.88
2018-07-11T11:32:42.753Z,20.55
2018-07-11T11:34:35.716Z,19.81
2018-07-11T11:35:35.815Z,19.74
2018-07-11T11:37:28.773Z,19.45
2018-07-11T11:38:28.839Z,19.44
2018-07-11T11:40:21.841Z,19.41
2018-07-11T11:41:21.900Z,19.45
2018-07-11T11:43:14.910Z,19.47
2018-07-11T11:44:14.961Z,19.47
2018-07-11T11:46:07.956Z,19.55
2018-07-11T11:47:08.020Z,19.58
2018-07-11T11:49:01.023Z,19.79
2018-07-11T11:50:01.080Z,19.89
2018-07-11T11:51:54.081Z,19.82
2018-07-11T11:52:54.145Z,19.81
2018-07-11T11:54:47.154Z,19.94
2018-07-11T11:55:47.206Z,20.10
2018-07-11T11:57:40.200Z,20.07
2018-07-11T11:58:40.357Z,20.03
2018-07-11T12:00:33.271Z,20.04
2018-07-11T12:01:33.352Z,20.10
2018-07-11T12:03:26.326Z,20.16
2018-07-11T12:04:26.388Z,20.34
2018-07-11T12:06:19.394Z,20.25
2018-07-11T12:07:19.510Z,20.31
2018-07-11T12:09:12.462Z,20.34
2018-07-11T12:10:12.519Z,20.22
2018-07-11T12:12:05.523Z,20.24
2018-07-11T12:13:05.584Z,20.21
2018-07-11T12:14:58.586Z,20.24
2018-07-11T12:15:58.649Z,20.29
2018-07-11T12:17:51.649Z,20.28
2018-07-11T12:18:51.713Z,20.24
2018-07-11T12:20:44.715Z,20.24
2018-07-11T12:21:44.775Z,20.24
2018-07-11T12:23:37.778Z,20.24
2018-07-11T12:24:37.839Z,20.28
2018-07-11T12:26:30.845Z,20.13
2018-07-11T12:27:30.895Z,20.13
2018-07-11T12:29:23.906Z,20.04
2018-07-11T12:30:23.964Z,20.07
2018-07-11T12:32:16.974Z,20.09
2018-07-11T12:33:17.027Z,20.18
2018-07-11T12:35:10.027Z,20.13
2018-07-11T12:36:10.086Z,20.16
2018-07-11T12:38:03.083Z,20.25
2018-07-11T12:39:03.145Z,20.19
2018-07-11T12:40:56.147Z,20.21
2018-07-11T12:41:56.205Z,20.25
2018-07-11T12:43:49.199Z,20.37
2018-07-11T12:44:49.271Z,20.37
2018-07-11T12:46:42.283Z,20.48
2018-07-11T12:47:42.340Z,20.55
2018-07-11T12:49:35.337Z,20.55
2018-07-11T12:50:35.424Z,20.52
2018-07-11T12:52:28.403Z,20.55
2018-07-11T12:53:28.464Z,20.55
2018-07-11T12:55:21.470Z,20.55
2018-07-11T12:56:21.527Z,20.55
2018-07-11T12:58:14.522Z,20.58
2018-07-11T12:59:14.588Z,20.56
2018-07-11T13:01:07.595Z,20.60
2018-07-11T13:02:07.647Z,20.55
2018-07-11T13:04:00.653Z,20.40
2018-07-11T13:05:00.710Z,20.40
2018-07-11T13:06:53.711Z,20.26
2018-07-11T13:07:53.771Z,20.26
2018-07-11T13:09:46.766Z,19.86
2018-07-11T13:10:46.836Z,19.77
2018-07-11T13:12:39.840Z,19.56
2018-07-11T13:13:39.897Z,19.51
2018-07-11T13:15:32.925Z,19.24
2018-07-11T13:16:32.968Z,19.37
2018-07-11T13:18:25.988Z,19.39
2018-07-11T13:19:26.027Z,19.41
2018-07-11T13:21:19.032Z,19.54
2018-07-11T13:22:19.085Z,19.48
2018-07-11T13:24:12.083Z,19.52
2018-07-11T13:25:12.144Z,19.45
2018-07-11T13:27:06.148Z,19.45
2018-07-11T13:28:06.204Z,19.52
2018-07-11T13:29:59.205Z,19.39
2018-07-11T13:30:59.262Z,19.44
2018-07-11T13:32:52.272Z,19.34
2018-07-11T13:33:52.329Z,19.51
2018-07-11T13:35:45.328Z,19.33
2018-07-11T13:36:45.395Z,19.30
2018-07-11T13:38:38.394Z,19.18
2018-07-11T13:39:38.451Z,19.21
2018-07-11T13:41:31.467Z,19.29
2018-07-11T13:42:31.514Z,19.27
2018-07-11T13:44:24.508Z,19.18
2018-07-11T13:45:24.571Z,19.22
2018-07-11T13:47:17.572Z,19.09
2018-07-11T13:48:17.681Z,19.07
2018-07-11T13:50:11.144Z,19.00
2018-07-11T13:51:11.197Z,19.04
2018-07-11T13:53:04.227Z,19.02
2018-07-11T13:54:04.307Z,19.04
2018-07-11T13:55:57.255Z,18.99
2018-07-11T13:56:57.361Z,19.02
2018-07-11T13:58:50.315Z,18.93
2018-07-11T13:59:50.397Z,18.92
2018-07-11T14:01:43.387Z,18.90
2018-07-11T14:02:43.434Z,18.96
2018-07-11T14:04:36.471Z,19.31
2018-07-11T14:05:36.500Z,19.41
2018-07-11T14:07:29.646Z,19.56
2018-07-11T14:08:29.541Z,19.67
2018-07-11T14:10:22.540Z,19.81
2018-07-11T14:11:22.654Z,19.77
2018-07-11T14:13:15.605Z,20.03
2018-07-11T14:14:15.883Z,20.13
2018-07-11T14:16:08.657Z,20.39
2018-07-11T14:17:08.812Z,20.40
2018-07-11T14:19:01.814Z,20.47
2018-07-11T14:20:01.854Z,20.47
2018-07-11T14:21:54.780Z,20.56
2018-07-11T14:22:54.842Z,20.77
2018-07-11T14:24:47.866Z,20.70
2018-07-11T14:25:47.925Z,20.90
2018-07-11T14:27:41.138Z,20.90
2018-07-11T14:28:41.042Z,20.97
2018-07-11T14:30:34.089Z,21.00
2018-07-11T14:31:34.054Z,20.90
2018-07-11T14:33:27.064Z,21.07
2018-07-11T14:34:27.119Z,21.05
2018-07-11T14:36:20.120Z,21.18
2018-07-11T14:37:20.225Z,21.20
2018-07-11T14:39:13.294Z,21.22
2018-07-11T14:40:13.640Z,21.18
2018-07-11T14:42:06.259Z,21.46
2018-07-11T14:43:06.330Z,21.43
2018-07-11T14:44:59.329Z,21.48
2018-07-11T14:45:59.388Z,21.64
2018-07-11T14:47:52.381Z,21.46
2018-07-11T14:48:52.466Z,21.55
2018-07-11T14:50:45.454Z,21.48
2018-07-11T14:51:45.513Z,21.45
2018-07-11T14:53:38.515Z,21.33
2018-07-11T14:54:38.572Z,21.30
2018-07-11T14:56:31.630Z,21.11
2018-07-11T14:57:31.645Z,21.09
2018-07-11T14:59:24.650Z,20.99
2018-07-11T15:00:24.707Z,20.96
2018-07-11T15:02:17.709Z,20.99
2018-07-11T15:03:17.776Z,20.81
2018-07-11T15:05:10.976Z,20.87
2018-07-11T15:06:11.052Z,20.88
2018-07-11T15:08:03.849Z,20.75
2018-07-11T15:09:04.141Z,20.77
2018-07-11T15:10:56.918Z,20.67
2018-07-11T15:11:57.192Z,20.66
2018-07-11T15:13:49.983Z,20.48
2018-07-11T15:14:50.179Z,20.50
2018-07-11T15:16:43.058Z,20.39
2018-07-11T15:17:43.125Z,20.39
2018-07-11T15:19:36.113Z,20.31
2018-07-11T15:20:36.169Z,20.39
2018-07-11T15:22:29.172Z,20.48
2018-07-11T15:23:29.237Z,20.43
2018-07-11T15:25:22.234Z,20.55
2018-07-11T15:26:22.294Z,20.56
2018-07-11T15:28:15.810Z,20.66
2018-07-11T15:29:16.148Z,20.69
2018-07-11T15:31:08.875Z,20.77
2018-07-11T15:32:08.932Z,20.90
2018-07-11T15:34:01.930Z,21.02
2018-07-11T15:35:01.996Z,21.18
2018-07-11T15:36:55.009Z,21.11
2018-07-11T15:37:55.076Z,21.20
2018-07-11T15:39:48.062Z,21.20
2018-07-11T15:40:48.123Z,21.24
2018-07-11T15:42:41.121Z,21.54
2018-07-11T15:43:41.213Z,21.48
2018-07-11T15:45:34.254Z,21.48
2018-07-11T15:46:34.241Z,21.45
2018-07-11T15:48:27.241Z,21.51
2018-07-11T15:49:27.305Z,21.48
2018-07-11T15:51:20.306Z,21.54
2018-07-11T15:52:20.365Z,21.46
2018-07-11T15:54:13.363Z,21.50
2018-07-11T15:55:13.432Z,21.45
2018-07-11T15:57:06.441Z,21.27
2018-07-11T15:58:06.497Z,21.15
2018-07-11T15:59:59.566Z,20.99
2018-07-11T16:00:59.560Z,20.97
2018-07-11T16:02:52.562Z,20.97
2018-07-11T16:03:52.625Z,20.99
2018-07-11T16:05:45.714Z,21.14
2018-07-11T16:06:45.685Z,21.18
2018-07-11T16:08:38.687Z,21.25
2018-07-11T16:09:38.752Z,21.32
2018-07-11T16:11:31.773Z,21.27
2018-07-11T16:12:31.833Z,21.22
2018-07-11T16:14:24.834Z,21.35
2018-07-11T16:15:24.894Z,21.37
2018-07-11T16:17:17.902Z,21.32
2018-07-11T16:18:17.962Z,21.42
2018-07-11T16:20:12.289Z,21.37
2018-07-11T16:21:12.253Z,21.45
2018-07-11T16:23:05.317Z,21.32
2018-07-11T16:24:05.352Z,21.25
2018-07-11T16:25:58.769Z,21.32
2018-07-11T16:26:58.565Z,21.33
2018-07-11T16:28:51.588Z,21.27
2018-07-11T16:29:51.611Z,21.33
2018-07-11T16:31:44.666Z,21.30
2018-07-11T16:32:44.672Z,21.42
2018-07-11T16:34:37.720Z,21.42
2018-07-11T16:35:37.824Z,21.42
2018-07-11T16:37:30.788Z,21.54
2018-07-11T16:38:30.972Z,21.55
2018-07-11T16:40:23.962Z,21.61
2018-07-11T16:41:23.865Z,21.64
2018-07-11T16:43:16.971Z,21.82
2018-07-11T16:44:17.075Z,21.82
2018-07-11T16:46:10.000Z,21.91
2018-07-11T16:47:09.986Z,21.92
2018-07-11T16:49:03.064Z,21.96
2018-07-11T16:50:03.100Z,21.96
2018-07-11T16:51:56.400Z,21.93
2018-07-11T16:52:56.161Z,21.92
2018-07-11T16:54:49.161Z,22.00
2018-07-11T16:55:49.274Z,21.93
2018-07-11T16:57:42.435Z,21.99
2018-07-11T16:58:42.288Z,21.98
2018-07-11T17:00:35.315Z,21.88
2018-07-11T17:01:35.373Z,21.76
2018-07-11T17:03:28.371Z,21.75
2018-07-11T17:04:28.453Z,21.77
2018-07-11T17:06:21.445Z,21.69
2018-07-11T17:07:21.761Z,21.72
2018-07-11T17:09:16.004Z,21.66
2018-07-11T17:10:16.126Z,21.69
2018-07-11T17:12:09.088Z,21.83
2018-07-11T17:13:09.194Z,21.79
2018-07-11T17:15:02.133Z,21.77
2018-07-11T17:16:02.400Z,21.83
2018-07-11T17:17:55.371Z,21.92
2018-07-11T17:18:55.335Z,21.72
2018-07-11T17:20:48.257Z,21.64
2018-07-11T17:21:48.359Z,21.67
2018-07-11T17:23:41.570Z,21.50
2018-07-11T17:24:41.404Z,21.42
2018-07-11T17:26:34.448Z,21.46
2018-07-11T17:27:34.469Z,21.37
2018-07-11T17:29:27.578Z,21.40
2018-07-11T17:30:27.541Z,21.50
2018-07-11T17:32:20.725Z,21.45
2018-07-11T17:33:20.610Z,21.43
2018-07-11T17:35:13.600Z,21.39
2018-07-11T17:36:13.672Z,21.30
2018-07-11T17:38:06.689Z,21.21
2018-07-11T17:39:06.740Z,21.15
2018-07-11T17:40:59.742Z,20.70
2018-07-11T17:41:59.826Z,20.72
2018-07-11T17:43:52.813Z,20.48
2018-07-11T17:44:52.873Z,20.22
2018-07-11T17:46:45.873Z,19.99
2018-07-11T17:47:45.935Z,19.91
2018-07-11T17:49:38.942Z,19.81
2018-07-11T17:50:39.001Z,19.76
2018-07-11T17:52:32.007Z,19.66
2018-07-11T17:53:32.065Z,19.62
2018-07-11T17:55:25.066Z,19.52
2018-07-11T17:56:25.444Z,19.52
2018-07-11T17:58:18.138Z,19.44
2018-07-11T17:59:18.191Z,19.45
2018-07-11T18:01:11.190Z,19.34
2018-07-11T18:02:12.397Z,19.34
2018-07-11T18:04:04.292Z,19.37
2018-07-11T18:05:04.345Z,19.31
2018-07-11T18:06:57.335Z,19.29
2018-07-11T18:07:57.401Z,19.34
2018-07-11T18:09:50.912Z,19.37
2018-07-11T18:10:50.969Z,19.34
2018-07-11T18:12:43.968Z,19.47
2018-07-11T18:13:44.029Z,19.40
2018-07-11T18:15:37.033Z,19.31
2018-07-11T18:16:37.089Z,19.31
2018-07-11T18:18:30.101Z,19.29
2018-07-11T18:19:30.159Z,19.40
2018-07-11T18:21:23.162Z,19.39
2018-07-11T18:22:23.220Z,19.31
2018-07-11T18:24:16.223Z,19.29
2018-07-11T18:25:16.281Z,19.33
2018-07-11T18:27:09.276Z,19.30
2018-07-11T18:28:09.340Z,19.41
2018-07-11T18:30:02.342Z,19.37
2018-07-11T18:31:02.399Z,19.37
2018-07-11T18:32:55.401Z,19.33
2018-07-11T18:33:55.471Z,19.37